Time;durP1;ratioP1;P1;durP2;ratioP2;P2;SDS_P1;SDS_P2;PMS_P1;PMS_P2;Temp;Humidity;BMP_temperature;BMP_pressure;BME280_temperature;BME280_humidity;BME280_pressure;Samples;Min_cycle;Max_cycle;Signal;HPM_P1;HPM_P2
2023/09/06 00:01:09;;;;;;;6.60;4.05;;;23.30;99.90;;;;;;5098422;28;20207;-84
2023/09/06 00:03:37;;;;;;;7.18;4.50;;;23.20;99.90;;;;;;5098294;28;20255;-85
2023/09/06 00:06:04;;;;;;;4.88;4.38;;;23.30;99.90;;;;;;5098183;28;20164;-85
2023/09/06 00:08:33;;;;;;;4.28;3.80;;;23.20;99.90;;;;;;5098148;28;20643;-84
2023/09/06 00:11:05;;;;;;;5.70;4.97;;;23.20;99.90;;;;;;5097736;28;20297;-84
2023/09/06 00:13:32;;;;;;;4.68;4.28;;;23.20;99.90;;;;;;5097565;28;20167;-85
2023/09/06 00:15:58;;;;;;;4.65;3.95;;;23.20;99.90;;;;;;5096388;28;20206;-85
2023/09/06 00:18:24;;;;;;;5.30;4.80;;;23.20;99.90;;;;;;5097452;28;20168;-84
2023/09/06 00:20:49;;;;;;;7.80;5.45;;;23.00;99.90;;;;;;5097221;28;20231;-86
2023/09/06 00:23:17;;;;;;;6.13;4.60;;;22.90;99.90;;;;;;5097328;28;20194;-85
2023/09/06 00:25:43;;;;;;;6.28;4.25;;;22.70;99.90;;;;;;5096857;28;20176;-84
2023/09/06 00:28:09;;;;;;;7.15;5.13;;;22.60;99.90;;;;;;5097164;28;20225;-85
2023/09/06 00:30:35;;;;;;;6.95;5.90;;;22.70;99.90;;;;;;5098452;28;20172;-85
2023/09/06 00:33:05;;;;;;;9.38;5.90;;;22.60;99.90;;;;;;5098559;28;20241;-85
2023/09/06 00:35:31;;;;;;;8.05;5.55;;;22.60;99.90;;;;;;5099155;28;20168;-85
2023/09/06 00:37:57;;;;;;;5.60;5.10;;;22.50;99.90;;;;;;5099072;28;20167;-85
2023/09/06 00:40:23;;;;;;;6.13;4.32;;;22.40;99.90;;;;;;5097108;28;20254;-84
2023/09/06 00:42:51;;;;;;;4.50;3.80;;;22.30;99.90;;;;;;5097688;28;20168;-84
2023/09/06 00:45:21;;;;;;;4.78;4.07;;;22.20;99.90;;;;;;5097906;28;20160;-85
2023/09/06 00:47:49;;;;;;;6.97;3.78;;;22.20;99.90;;;;;;5097687;28;20172;-84
2023/09/06 00:50:16;;;;;;;8.73;5.05;;;22.20;99.90;;;;;;5098001;28;20317;-86
2023/09/06 00:52:42;;;;;;;7.07;4.32;;;22.20;99.90;;;;;;5096294;28;20518;-85
2023/09/06 00:55:08;;;;;;;5.57;3.95;;;22.10;99.90;;;;;;5096996;28;20176;-86
2023/09/06 00:57:35;;;;;;;5.35;4.00;;;22.10;99.90;;;;;;5097194;28;20179;-85
2023/09/06 01:00:05;;;;;;;6.40;4.10;;;22.10;99.90;;;;;;5097187;28;20217;-84
2023/09/06 01:02:31;;;;;;;4.07;3.33;;;22.20;99.90;;;;;;5095958;28;20198;-85
2023/09/06 01:04:57;;;;;;;3.17;2.97;;;22.30;99.90;;;;;;5095851;28;20172;-85
2023/09/06 01:07:27;;;;;;;5.65;3.30;;;22.30;99.90;;;;;;5096968;28;20225;-84
2023/09/06 01:09:53;;;;;;;2.88;2.67;;;22.40;99.90;;;;;;5096580;28;20688;-85
2023/09/06 01:12:19;;;;;;;3.22;3.00;;;22.40;99.90;;;;;;5097065;28;20176;-85
2023/09/06 01:14:44;;;;;;;3.33;2.70;;;22.50;99.90;;;;;;5097073;28;20671;-85
2023/09/06 01:17:16;;;;;;;5.75;3.30;;;22.50;99.90;;;;;;5096500;28;20623;-85
2023/09/06 01:19:47;;;;;;;4.65;3.53;;;22.60;99.90;;;;;;5096247;28;20235;-85
2023/09/06 01:22:33;;;;;;;4.10;3.78;;;22.60;99.90;;;;;;5096580;28;20168;-85
2023/09/06 01:24:59;;;;;;;4.05;3.65;;;22.60;99.90;;;;;;5095978;28;20171;-84
2023/09/06 01:27:25;;;;;;;4.05;3.58;;;22.60;99.90;;;;;;5096402;28;20646;-86
2023/09/06 01:29:51;;;;;;;3.85;3.17;;;22.50;99.90;;;;;;5096530;28;20179;-87
2023/09/06 01:32:17;;;;;;;7.28;4.57;;;22.30;99.90;;;;;;5096356;28;20180;-86
2023/09/06 01:34:43;;;;;;;5.97;4.60;;;22.40;99.90;;;;;;5096181;28;20225;-85
2023/09/06 01:37:08;;;;;;;7.97;4.80;;;22.20;99.90;;;;;;5096085;28;20251;-86
2023/09/06 01:39:34;;;;;;;10.60;3.97;;;22.00;99.90;;;;;;5095923;28;20696;-85
2023/09/06 01:42:00;;;;;;;6.95;4.30;;;21.80;99.90;;;;;;5095912;28;20168;-85
2023/09/06 01:44:26;;;;;;;4.57;4.15;;;21.80;99.90;;;;;;5096185;28;20176;-84
2023/09/06 01:46:52;;;;;;;5.18;4.18;;;21.60;99.90;;;;;;5095876;28;20507;-86
2023/09/06 01:49:18;;;;;;;9.00;4.45;;;21.50;99.90;;;;;;5095939;28;20217;-85
2023/09/06 01:51:43;;;;;;;4.45;4.13;;;21.40;99.90;;;;;;5096052;28;20178;-85
2023/09/06 01:54:11;;;;;;;5.97;4.32;;;21.20;99.90;;;;;;5095743;28;20168;-85
2023/09/06 01:56:37;;;;;;;4.97;4.47;;;21.00;99.90;;;;;;5095673;28;20171;-85
2023/09/06 01:59:03;;;;;;;7.32;4.30;;;20.90;99.90;;;;;;5094274;28;20172;-85
2023/09/06 02:01:29;;;;;;;6.45;4.20;;;20.80;99.90;;;;;;5095686;28;20229;-85
2023/09/06 02:03:55;;;;;;;4.90;4.03;;;20.80;99.90;;;;;;5095330;28;20160;-84
2023/09/06 02:06:20;;;;;;;4.80;4.40;;;20.90;99.90;;;;;;5095068;28;20173;-85
2023/09/06 02:08:46;;;;;;;8.50;4.30;;;20.90;99.90;;;;;;5095429;28;20172;-86
2023/09/06 02:11:12;;;;;;;4.20;3.80;;;20.80;99.90;;;;;;5095373;28;20175;-84
2023/09/06 02:13:37;;;;;;;5.53;4.05;;;20.70;99.90;;;;;;5094396;28;20174;-84
2023/09/06 02:16:03;;;;;;;5.05;4.07;;;20.70;99.90;;;;;;5095099;28;20631;-84
2023/09/06 02:18:29;;;;;;;5.38;4.28;;;20.80;99.90;;;;;;5095167;28;20167;-85
2023/09/06 02:20:55;;;;;;;4.60;4.28;;;20.80;99.90;;;;;;5094534;28;20242;-85
2023/09/06 02:23:21;;;;;;;6.90;4.65;;;20.80;99.90;;;;;;5095456;28;20179;-86
2023/09/06 02:25:47;;;;;;;4.53;3.90;;;20.80;99.90;;;;;;5095541;28;20164;-85
2023/09/06 02:28:14;;;;;;;6.80;4.28;;;20.80;99.90;;;;;;5095000;28;20718;-85
2023/09/06 02:30:41;;;;;;;4.07;3.78;;;20.80;99.90;;;;;;5095067;28;20638;-84
2023/09/06 02:33:09;;;;;;;4.72;4.32;;;20.70;99.90;;;;;;5094738;28;20192;-85
2023/09/06 02:35:40;;;;;;;4.43;4.10;;;20.80;99.90;;;;;;5094716;28;20640;-85
2023/09/06 02:38:10;;;;;;;4.40;4.13;;;20.70;99.90;;;;;;5094858;28;20188;-84
2023/09/06 02:40:35;;;;;;;6.72;4.40;;;20.70;99.90;;;;;;5094241;28;20568;-84
2023/09/06 02:43:02;;;;;;;4.72;4.32;;;20.70;99.90;;;;;;5094980;28;20175;-84
2023/09/06 02:45:49;;;;;;;6.10;4.50;;;20.70;99.90;;;;;;5094607;28;20183;-85
2023/09/06 02:48:18;;;;;;;8.50;5.05;;;20.70;99.90;;;;;;5093371;28;20180;-84
2023/09/06 02:50:44;;;;;;;13.45;5.40;;;20.60;99.90;;;;;;5094473;28;20250;-85
2023/09/06 02:53:20;;;;;;;9.68;5.13;;;20.40;99.90;;;;;;5094712;28;20164;-84
2023/09/06 02:55:48;;;;;;;5.82;4.70;;;20.30;99.90;;;;;;5094581;28;20183;-86
2023/09/06 02:58:15;;;;;;;5.53;4.88;;;20.30;99.90;;;;;;5094529;28;20178;-84
2023/09/06 03:00:43;;;;;;;7.72;5.00;;;20.30;99.90;;;;;;5094688;28;20219;-84
2023/09/06 03:03:08;;;;;;;8.32;5.43;;;20.20;99.90;;;;;;5094578;28;20167;-85
2023/09/06 03:05:41;;;;;;;8.23;5.00;;;20.20;99.90;;;;;;5092875;28;20168;-85
2023/09/06 03:08:07;;;;;;;5.72;4.75;;;20.10;99.90;;;;;;5094452;28;20620;-85
2023/09/06 03:10:34;;;;;;;9.73;4.88;;;20.10;99.90;;;;;;5098194;28;20240;-85
2023/09/06 03:13:00;;;;;;;6.40;5.20;;;20.00;99.90;;;;;;5098449;28;20164;-86
2023/09/06 03:15:28;;;;;;;11.85;5.18;;;20.00;99.90;;;;;;5096426;28;20168;-84
2023/09/06 03:18:02;;;;;;;10.13;5.28;;;20.00;99.90;;;;;;5096250;28;20168;-85
2023/09/06 03:20:33;;;;;;;9.40;5.03;;;19.90;99.90;;;;;;5094129;28;20290;-85
2023/09/06 03:23:17;;;;;;;7.43;4.97;;;19.90;99.90;;;;;;5093073;28;20619;-85
2023/09/06 03:25:57;;;;;;;8.30;5.22;;;19.90;99.90;;;;;;5094272;28;20179;-85
2023/09/06 03:28:25;;;;;;;8.05;5.82;;;19.80;99.90;;;;;;5092537;28;20198;-86
2023/09/06 03:30:52;;;;;;;9.00;5.53;;;19.80;99.90;;;;;;5094120;28;20168;-86
2023/09/06 03:33:17;;;;;;;8.13;5.45;;;19.80;99.90;;;;;;5093821;28;20191;-85
2023/09/06 03:35:45;;;;;;;11.70;5.90;;;19.90;99.90;;;;;;5093613;28;20163;-84
2023/09/06 03:38:15;;;;;;;11.80;5.90;;;19.90;99.90;;;;;;5094006;28;20195;-87
2023/09/06 03:40:42;;;;;;;7.82;5.45;;;19.70;99.90;;;;;;5094029;28;20230;-85
2023/09/06 03:43:19;;;;;;;15.15;5.70;;;19.70;99.90;;;;;;5094071;28;20237;-85
2023/09/06 03:45:53;;;;;;;7.05;4.97;;;19.60;99.90;;;;;;5093891;28;20176;-86
2023/09/06 03:48:20;;;;;;;11.43;5.43;;;19.50;99.90;;;;;;5092809;28;20228;-86
2023/09/06 03:50:48;;;;;;;9.90;5.22;;;19.50;99.90;;;;;;5093795;28;20175;-86
2023/09/06 03:53:15;;;;;;;7.07;5.32;;;19.40;99.90;;;;;;5093733;28;20168;-85
2023/09/06 03:55:44;;;;;;;10.70;5.85;;;19.40;99.90;;;;;;5093791;28;20167;-86
2023/09/06 03:58:10;;;;;;;9.27;5.35;;;19.30;99.90;;;;;;5093766;28;20168;-86
2023/09/06 04:00:39;;;;;;;14.73;5.60;;;19.30;99.90;;;;;;5093831;28;20290;-86
2023/09/06 04:03:07;;;;;;;9.63;5.75;;;19.20;99.90;;;;;;5093941;28;20168;-86
2023/09/06 04:05:33;;;;;;;9.50;5.63;;;19.20;99.90;;;;;;5093981;28;20164;-85
2023/09/06 04:08:03;;;;;;;11.18;5.43;;;19.10;99.90;;;;;;5094113;28;20221;-85
2023/09/06 04:10:43;;;;;;;11.15;6.00;;;19.10;99.90;;;;;;5092679;28;20172;-86
2023/09/06 04:13:10;;;;;;;12.05;5.43;;;19.10;99.90;;;;;;5093387;28;20707;-85
2023/09/06 04:15:39;;;;;;;13.25;5.75;;;19.10;99.90;;;;;;5093802;28;20228;-86
2023/09/06 04:18:07;;;;;;;16.35;5.90;;;19.00;99.90;;;;;;5093489;28;20172;-86
2023/09/06 04:20:37;;;;;;;12.63;5.80;;;19.00;99.90;;;;;;5093454;28;20227;-85
2023/09/06 04:23:05;;;;;;;12.48;5.90;;;19.00;99.90;;;;;;5092408;28;20206;-85
2023/09/06 04:25:33;;;;;;;12.95;6.03;;;18.90;99.90;;;;;;5093668;28;20699;-85
2023/09/06 04:27:59;;;;;;;16.80;5.90;;;18.90;99.90;;;;;;5093487;28;20627;-85
2023/09/06 04:30:28;;;;;;;13.98;5.55;;;18.80;99.90;;;;;;5095265;28;20693;-85
2023/09/06 04:32:54;;;;;;;9.45;5.80;;;18.70;99.90;;;;;;5093420;28;20233;-85
2023/09/06 04:35:22;;;;;;;10.32;5.80;;;18.70;99.90;;;;;;5093468;28;20553;-85
2023/09/06 04:37:47;;;;;;;13.55;5.75;;;18.70;99.90;;;;;;5093667;28;20171;-85
2023/09/06 04:40:14;;;;;;;16.40;6.20;;;18.60;99.90;;;;;;5096648;28;20683;-85
2023/09/06 04:42:42;;;;;;;14.93;5.68;;;18.60;99.90;;;;;;5096924;28;20160;-85
2023/09/06 04:45:11;;;;;;;14.35;5.78;;;18.60;99.90;;;;;;5096801;28;20255;-85
2023/09/06 04:47:43;;;;;;;12.73;5.55;;;18.50;99.90;;;;;;5096750;28;20628;-86
2023/09/06 04:50:12;;;;;;;17.10;6.10;;;18.50;99.90;;;;;;5096766;28;20168;-86
2023/09/06 04:52:50;;;;;;;15.52;6.25;;;18.50;99.90;;;;;;5096597;28;20571;-86
2023/09/06 04:55:19;;;;;;;18.90;5.85;;;18.50;99.90;;;;;;5096874;28;20217;-86
2023/09/06 04:57:49;;;;;;;23.08;6.22;;;18.50;99.90;;;;;;5095958;28;20226;-86
2023/09/06 05:00:23;;;;;;;15.05;6.68;;;18.50;99.90;;;;;;5095269;28;20199;-86
2023/09/06 05:02:50;;;;;;;18.10;6.50;;;18.50;99.90;;;;;;5096417;28;20195;-87
2023/09/06 05:05:15;;;;;;;20.92;6.15;;;18.50;99.90;;;;;;5095118;28;20168;-86
2023/09/06 05:07:42;;;;;;;12.30;6.28;;;18.50;99.90;;;;;;5096848;28;20679;-87
2023/09/06 05:10:11;;;;;;;10.27;6.00;;;18.40;99.90;;;;;;5096000;28;20168;-87
2023/09/06 05:12:37;;;;;;;23.05;6.78;;;18.40;99.90;;;;;;5097206;28;20175;-87
2023/09/06 05:15:04;;;;;;;15.48;6.68;;;18.40;99.90;;;;;;5098111;28;20161;-85
2023/09/06 05:17:30;;;;;;;22.30;6.15;;;18.40;99.90;;;;;;5096314;28;20180;-86
2023/09/06 05:20:23;;;;;;;18.98;6.20;;;18.40;99.90;;;;;;5095941;28;20221;-86
2023/09/06 05:22:49;;;;;;;16.15;6.75;;;18.50;99.90;;;;;;5094849;28;20550;-86
2023/09/06 05:25:14;;;;;;;20.30;6.43;;;19.00;99.90;;;;;;5096064;28;20179;-84
2023/09/06 05:27:40;;;;;;;19.20;6.05;;;19.70;99.90;;;;;;5095617;28;20510;-85
2023/09/06 05:30:06;;;;;;;16.98;7.20;;;20.30;99.90;;;;;;5095330;28;20209;-85
2023/09/06 05:32:32;;;;;;;15.00;6.13;;;21.00;99.90;;;;;;5095553;28;20183;-84
2023/09/06 05:34:57;;;;;;;16.77;6.50;;;21.20;99.90;;;;;;5095426;28;20168;-85
2023/09/06 05:37:24;;;;;;;15.35;6.25;;;21.00;99.90;;;;;;5095482;28;20172;-84
2023/09/06 05:39:50;;;;;;;23.08;7.18;;;20.80;99.90;;;;;;5095488;28;20252;-86
2023/09/06 05:42:16;;;;;;;16.38;7.13;;;20.90;99.90;;;;;;5095208;28;20156;-87
2023/09/06 05:44:42;;;;;;;18.70;7.93;;;20.90;99.90;;;;;;5094770;28;20313;-86
2023/09/06 05:47:08;;;;;;;21.65;7.30;;;21.10;99.90;;;;;;5095475;28;20179;-85
2023/09/06 05:49:35;;;;;;;25.15;6.75;;;21.80;99.90;;;;;;5094938;28;20171;-83
2023/09/06 05:52:02;;;;;;;15.82;6.55;;;23.10;99.90;;;;;;5094687;28;20187;-83
2023/09/06 05:54:27;;;;;;;22.85;7.00;;;24.70;99.90;;;;;;5094698;28;20179;-84
2023/09/06 05:56:53;;;;;;;15.93;6.65;;;26.30;99.90;;;;;;5094400;28;20168;-84
2023/09/06 05:59:19;;;;;;;20.23;5.95;;;27.60;99.90;;;;;;5094186;28;20171;-83
2023/09/06 06:01:45;;;;;;;21.38;6.25;;;28.90;99.90;;;;;;5094168;28;20251;-80
2023/09/06 06:04:11;;;;;;;14.38;6.15;;;30.00;97.80;;;;;;5093450;28;20635;-81
2023/09/06 06:06:37;;;;;;;14.50;6.35;;;30.90;95.30;;;;;;5094079;28;20199;-79
2023/09/06 06:09:04;;;;;;;12.88;5.95;;;31.90;92.10;;;;;;5093858;28;20185;-80
2023/09/06 06:11:29;;;;;;;18.77;5.97;;;32.60;88.10;;;;;;5093809;28;20160;-79
2023/09/06 06:13:56;;;;;;;11.38;5.43;;;33.00;83.60;;;;;;5093694;28;20164;-79
2023/09/06 06:16:21;;;;;;;15.45;5.95;;;33.80;78.60;;;;;;5093544;28;20240;-79
2023/09/06 06:18:50;;;;;;;13.70;5.25;;;34.50;72.10;;;;;;5094315;28;20647;-79
2023/09/06 06:21:15;;;;;;;14.57;6.03;;;35.20;67.80;;;;;;5093697;28;20289;-77
2023/09/06 06:23:46;;;;;;;9.43;5.07;;;35.90;63.00;;;;;;5094028;28;20602;-79
2023/09/06 06:26:12;;;;;;;12.15;6.05;;;35.90;58.90;;;;;;5093260;28;20174;-79
2023/09/06 06:28:37;;;;;;;8.82;5.00;;;35.70;59.10;;;;;;5092995;28;20164;-78
2023/09/06 06:31:03;;;;;;;10.52;5.78;;;36.00;57.50;;;;;;5093216;28;20167;-78
2023/09/06 06:33:28;;;;;;;10.23;5.13;;;37.00;55.50;;;;;;5093368;28;20551;-77
2023/09/06 06:35:54;;;;;;;10.00;5.00;;;37.40;53.70;;;;;;5092898;28;20171;-76
2023/09/06 06:38:20;;;;;;;9.27;4.65;;;37.40;51.90;;;;;;5086469;28;20271;-77
2023/09/06 06:40:45;;;;;;;11.05;5.57;;;37.30;51.20;;;;;;5073862;28;20219;-78
2023/09/06 06:43:12;;;;;;;14.48;5.47;;;37.90;50.80;;;;;;5100158;28;20171;-74
2023/09/06 06:45:37;;;;;;;13.90;5.68;;;38.20;48.90;;;;;;5095182;28;20225;-77
2023/09/06 06:48:03;;;;;;;8.60;4.88;;;38.50;47.60;;;;;;5100175;28;20174;-76
2023/09/06 06:50:29;;;;;;;8.27;4.93;;;37.90;47.60;;;;;;5101190;28;20210;-76
2023/09/06 06:52:54;;;;;;;10.98;5.18;;;37.60;48.40;;;;;;5107388;28;20655;-77
2023/09/06 06:55:20;;;;;;;9.25;4.53;;;38.40;47.90;;;;;;5110959;28;20170;-76
2023/09/06 06:57:46;;;;;;;10.50;4.18;;;38.20;46.60;;;;;;5097473;28;20195;-75
2023/09/06 07:00:17;;;;;;;7.63;4.22;;;38.00;46.20;;;;;;5103440;28;20285;-76
2023/09/06 07:02:43;;;;;;;6.75;4.40;;;37.60;46.30;;;;;;5090207;28;20189;-76
2023/09/06 07:05:08;;;;;;;5.35;4.20;;;38.40;46.20;;;;;;5109048;28;20178;-76
2023/09/06 07:07:34;;;;;;;13.85;4.70;;;38.10;45.70;;;;;;5108918;28;20175;-76
2023/09/06 07:10:00;;;;;;;11.32;4.55;;;38.60;45.10;;;;;;5099925;28;20254;-76
2023/09/06 07:12:25;;;;;;;4.63;3.85;;;39.00;44.60;;;;;;5100842;28;20186;-77
2023/09/06 07:14:51;;;;;;;9.90;4.82;;;38.30;44.40;;;;;;5106704;28;20616;-75
2023/09/06 07:17:17;;;;;;;9.07;4.25;;;38.90;44.10;;;;;;5095846;28;20175;-76
2023/09/06 07:19:43;;;;;;;6.47;3.55;;;38.80;43.10;;;;;;5112829;28;20229;-75
2023/09/06 07:22:09;;;;;;;6.63;3.35;;;38.70;43.00;;;;;;5103602;28;20175;-76
2023/09/06 07:24:35;;;;;;;5.88;3.53;;;37.20;44.60;;;;;;5104533;28;20185;-75
2023/09/06 07:27:00;;;;;;;9.82;3.28;;;36.90;46.40;;;;;;5109516;28;20197;-75
2023/09/06 07:29:26;;;;;;;5.80;3.15;;;37.30;45.60;;;;;;5093061;28;20657;-75
2023/09/06 07:31:51;;;;;;;7.25;3.38;;;38.40;45.10;;;;;;5096854;28;20173;-76
2023/09/06 07:34:17;;;;;;;3.97;2.90;;;39.60;41.80;;;;;;5090748;28;20643;-75
2023/09/06 07:36:43;;;;;;;6.60;2.97;;;39.10;41.60;;;;;;5095873;28;20171;-74
2023/09/06 07:39:09;;;;;;;5.93;3.10;;;38.60;42.50;;;;;;5104788;28;20243;-74
2023/09/06 07:41:34;;;;;;;5.13;3.33;;;39.30;41.50;;;;;;5094961;28;20685;-73
2023/09/06 07:44:00;;;;;;;6.00;2.92;;;39.20;41.70;;;;;;5101595;28;20277;-75
2023/09/06 07:46:29;;;;;;;5.15;3.05;;;39.10;41.40;;;;;;5098997;28;20191;-75
2023/09/06 07:48:55;;;;;;;6.28;3.10;;;38.50;42.00;;;;;;5094101;28;20179;-74
2023/09/06 07:51:20;;;;;;;7.43;3.08;;;38.20;41.40;;;;;;5096582;28;20175;-77
2023/09/06 07:53:46;;;;;;;4.20;3.20;;;37.80;42.70;;;;;;5094581;28;20231;-76
2023/09/06 07:56:12;;;;;;;5.20;2.97;;;37.60;42.00;;;;;;5093493;28;20174;-74
2023/09/06 07:58:38;;;;;;;6.18;3.40;;;36.60;43.30;;;;;;5090131;28;20168;-72
2023/09/06 08:01:04;;;;;;;3.38;2.83;;;36.80;45.70;;;;;;5093058;28;20211;-74
2023/09/06 08:03:30;;;;;;;6.03;3.05;;;37.10;44.50;;;;;;5096724;28;20175;-75
2023/09/06 08:05:55;;;;;;;6.53;2.88;;;38.50;44.20;;;;;;5096038;28;20171;-75
2023/09/06 08:08:21;;;;;;;3.05;2.85;;;37.80;42.00;;;;;;5096258;28;20185;-75
2023/09/06 08:10:47;;;;;;;6.90;3.03;;;36.30;45.10;;;;;;5090827;28;20264;-74
2023/09/06 08:13:12;;;;;;;4.55;2.88;;;35.50;47.40;;;;;;5095750;28;20177;-76
2023/09/06 08:15:38;;;;;;;4.97;2.75;;;36.10;48.40;;;;;;5102322;28;20179;-75
2023/09/06 08:18:05;;;;;;;3.03;2.83;;;37.10;46.50;;;;;;5102468;28;20532;-75
2023/09/06 08:20:31;;;;;;;4.75;2.83;;;37.40;45.50;;;;;;5100136;28;20320;-74
2023/09/06 08:22:58;;;;;;;3.80;2.92;;;35.90;46.80;;;;;;5098816;28;20222;-76
2023/09/06 08:25:23;;;;;;;5.75;2.80;;;35.00;50.40;;;;;;5089479;28;20183;-75
2023/09/06 08:27:53;;;;;;;5.18;2.67;;;35.60;48.90;;;;;;5074013;28;20172;-77
2023/09/06 08:30:20;;;;;;;7.72;3.20;;;34.40;51.00;;;;;;5074922;28;20176;-78
2023/09/06 08:32:47;;;;;;;3.53;2.72;;;34.80;52.90;;;;;;5074406;28;20191;-75
2023/09/06 08:35:13;;;;;;;5.53;3.00;;;34.20;53.30;;;;;;5083606;28;20171;-75
2023/09/06 08:37:40;;;;;;;7.40;3.10;;;34.10;54.70;;;;;;5076565;28;20184;-76
2023/09/06 08:40:06;;;;;;;3.50;3.20;;;35.70;52.60;;;;;;5076261;28;20239;-76
2023/09/06 08:42:36;;;;;;;4.93;3.00;;;35.90;50.90;;;;;;5076723;28;20657;-75
2023/09/06 08:45:05;;;;;;;4.00;2.80;;;34.90;51.50;;;;;;5083586;28;20261;-75
2023/09/06 08:47:31;;;;;;;4.88;2.65;;;34.80;53.20;;;;;;5079440;28;20599;-75
2023/09/06 08:49:56;;;;;;;3.20;2.90;;;35.60;53.00;;;;;;5075302;28;20171;-75
2023/09/06 08:52:23;;;;;;;3.10;2.90;;;36.70;51.00;;;;;;5076682;28;20207;-75
2023/09/06 08:54:51;;;;;;;6.55;2.92;;;37.80;48.00;;;;;;5081609;28;20163;-76
2023/09/06 08:57:18;;;;;;;3.88;2.90;;;38.00;46.70;;;;;;5082310;28;20176;-79
2023/09/06 08:59:46;;;;;;;5.05;2.72;;;38.60;46.10;;;;;;5078342;28;20207;-75
2023/09/06 09:02:15;;;;;;;3.10;2.80;;;38.10;45.70;;;;;;5078652;28;20180;-78
2023/09/06 09:04:44;;;;;;;5.88;3.03;;;38.80;44.80;;;;;;5080062;28;20174;-77
2023/09/06 09:07:11;;;;;;;4.18;2.47;;;38.80;44.50;;;;;;5081452;28;20188;-77
2023/09/06 09:09:57;;;;;;;3.13;2.60;;;38.40;44.70;;;;;;5081337;28;20306;-78
2023/09/06 09:12:24;;;;;;;5.47;2.70;;;38.10;45.50;;;;;;5079289;28;20168;-77
2023/09/06 09:14:51;;;;;;;4.30;2.60;;;38.70;44.50;;;;;;5082193;28;20171;-78
2023/09/06 09:17:19;;;;;;;3.65;2.60;;;38.50;44.10;;;;;;5080784;28;20180;-77
2023/09/06 09:19:49;;;;;;;4.60;2.70;;;38.50;44.20;;;;;;5084247;28;20225;-78
2023/09/06 09:22:15;;;;;;;3.03;2.67;;;38.40;44.40;;;;;;5099983;28;20179;-77
2023/09/06 09:24:41;;;;;;;3.78;2.40;;;37.30;45.60;;;;;;5093853;28;20509;-76
2023/09/06 09:27:08;;;;;;;4.03;2.97;;;36.50;47.80;;;;;;5093626;28;20200;-75
2023/09/06 09:29:35;;;;;;;4.18;2.70;;;37.00;48.30;;;;;;5090932;28;20674;-76
2023/09/06 09:32:03;;;;;;;3.55;2.67;;;37.80;45.90;;;;;;5100084;28;20233;-78
2023/09/06 09:34:28;;;;;;;5.78;2.70;;;37.30;45.30;;;;;;5099628;28;20183;-77
2023/09/06 09:36:54;;;;;;;5.38;2.92;;;37.10;47.20;;;;;;5094431;28;20321;-77
2023/09/06 09:39:26;;;;;;;4.20;2.75;;;37.90;46.10;;;;;;5097447;28;20651;-77
2023/09/06 09:41:56;;;;;;;2.97;2.78;;;37.80;45.50;;;;;;5102691;28;20167;-77
2023/09/06 09:44:22;;;;;;;3.22;2.92;;;37.30;46.00;;;;;;5102100;28;20183;-78
2023/09/06 09:46:49;;;;;;;6.60;2.85;;;38.20;45.50;;;;;;5096849;28;20236;-77
2023/09/06 09:49:17;;;;;;;4.85;2.53;;;38.60;43.70;;;;;;5097830;28;20179;-77
2023/09/06 09:51:44;;;;;;;2.90;2.15;;;38.70;42.60;;;;;;5102903;28;20641;-77
2023/09/06 09:54:13;;;;;;;2.40;2.25;;;38.30;42.50;;;;;;5102463;28;20657;-76
2023/09/06 09:56:44;;;;;;;3.03;2.30;;;37.90;43.00;;;;;;5101779;28;20177;-76
2023/09/06 09:59:10;;;;;;;3.80;2.40;;;36.60;45.20;;;;;;5096885;28;20275;-76
2023/09/06 10:01:38;;;;;;;3.17;2.88;;;37.00;45.20;;;;;;5103799;28;20202;-76
2023/09/06 10:04:07;;;;;;;2.67;2.35;;;36.40;44.80;;;;;;5103213;28;20182;-75
2023/09/06 10:06:33;;;;;;;3.08;2.58;;;36.50;46.10;;;;;;5104345;28;20206;-75
2023/09/06 10:09:03;;;;;;;4.50;2.10;;;37.60;44.40;;;;;;5097372;28;20726;-74
2023/09/06 10:11:32;;;;;;;2.80;2.17;;;37.60;42.80;;;;;;5103553;28;20179;-75
2023/09/06 10:13:59;;;;;;;3.55;2.50;;;37.50;42.60;;;;;;5104799;28;20717;-75
2023/09/06 10:16:26;;;;;;;2.80;2.53;;;37.50;42.30;;;;;;5104539;28;20718;-75
2023/09/06 10:18:51;;;;;;;2.92;2.50;;;35.70;44.00;;;;;;5101769;28;20179;-76
2023/09/06 10:21:18;;;;;;;3.60;2.50;;;35.60;47.10;;;;;;5100740;28;20721;-75
2023/09/06 10:23:47;;;;;;;3.33;2.33;;;36.10;45.40;;;;;;5104902;27;20182;-77
2023/09/06 10:26:27;;;;;;;2.90;2.50;;;35.60;46.20;;;;;;5105846;28;20239;-77
2023/09/06 10:29:00;;;;;;;2.85;2.55;;;35.90;47.10;;;;;;5086916;28;20176;-74
2023/09/06 10:31:48;;;;;;;3.00;2.30;;;36.30;45.30;;;;;;5104456;28;20183;-74
2023/09/06 10:34:14;;;;;;;2.15;2.05;;;36.10;46.20;;;;;;5105708;28;20661;-74
2023/09/06 10:37:02;;;;;;;2.88;2.40;;;35.20;46.60;;;;;;5107064;28;20182;-73
2023/09/06 10:39:29;;;;;;;3.35;2.42;;;35.20;47.90;;;;;;5105697;28;20179;-74
2023/09/06 10:42:15;;;;;;;5.35;2.63;;;34.80;48.60;;;;;;5107836;28;20170;-72
2023/09/06 10:44:53;;;;;;;3.45;3.17;;;34.90;49.70;;;;;;5107286;28;20174;-76
2023/09/06 10:47:35;;;;;;;4.82;2.65;;;35.00;49.10;;;;;;5103273;28;20187;-75
2023/09/06 10:50:20;;;;;;;3.33;2.50;;;35.30;49.80;;;;;;5108404;28;20175;-75
2023/09/06 10:52:53;;;;;;;2.30;2.10;;;36.10;48.50;;;;;;5108127;28;20621;-74
2023/09/06 10:55:21;;;;;;;4.78;2.40;;;35.70;47.30;;;;;;5104432;28;20182;-75
2023/09/06 10:57:48;;;;;;;4.18;3.30;;;36.30;47.20;;;;;;5109167;28;20527;-76
2023/09/06 11:00:21;;;;;;;3.88;2.90;;;36.20;46.10;;;;;;5109128;28;20202;-75
2023/09/06 11:03:07;;;;;;;2.70;2.50;;;35.50;48.40;;;;;;5107558;28;20239;-76
2023/09/06 11:05:38;;;;;;;6.15;2.53;;;35.20;48.50;;;;;;5079238;28;20179;-76
2023/09/06 11:08:06;;;;;;;4.63;4.22;;;35.70;48.50;;;;;;5109966;28;20224;-74
2023/09/06 11:10:32;;;;;;;5.88;4.22;;;34.90;50.40;;;;;;5109788;28;20170;-74
2023/09/06 11:13:09;;;;;;;4.63;2.22;;;34.50;50.00;;;;;;5098797;28;20201;-75
2023/09/06 11:15:36;;;;;;;3.58;2.00;;;34.10;48.80;;;;;;5091426;28;20168;-74
2023/09/06 11:18:05;;;;;;;3.38;2.17;;;33.80;49.20;;;;;;5096921;28;20202;-74
2023/09/06 11:20:32;;;;;;;3.15;2.85;;;34.20;49.90;;;;;;5101091;28;20322;-75
2023/09/06 11:22:59;;;;;;;2.95;2.75;;;34.20;49.70;;;;;;5106433;28;20200;-75
2023/09/06 11:25:27;;;;;;;3.03;2.13;;;33.90;51.80;;;;;;5093993;28;20171;-75
2023/09/06 11:27:58;;;;;;;2.70;2.40;;;33.20;52.30;;;;;;5097284;28;20521;-75
2023/09/06 11:30:26;;;;;;;3.08;2.22;;;32.80;53.50;;;;;;5111809;28;20245;-75
2023/09/06 11:32:54;;;;;;;2.40;2.30;;;33.10;54.00;;;;;;5111742;28;20642;-74
2023/09/06 11:35:27;;;;;;;4.22;2.30;;;33.50;53.30;;;;;;5094783;28;20266;-74
2023/09/06 11:37:54;;;;;;;4.68;2.38;;;33.30;52.30;;;;;;5107055;28;20171;-75
2023/09/06 11:40:21;;;;;;;2.72;2.30;;;32.80;53.30;;;;;;5100653;28;20195;-74
2023/09/06 11:42:56;;;;;;;4.95;2.10;;;33.20;51.80;;;;;;5099512;28;20180;-75
2023/09/06 11:45:22;;;;;;;2.22;2.03;;;34.00;50.80;;;;;;5104912;28;20186;-75
2023/09/06 11:47:49;;;;;;;2.80;2.50;;;33.60;50.80;;;;;;5094676;28;20802;-74
2023/09/06 11:50:21;;;;;;;2.65;2.20;;;32.90;52.60;;;;;;5108085;27;20206;-76
2023/09/06 11:52:53;;;;;;;3.42;2.35;;;32.60;51.90;;;;;;5110431;28;20166;-76
2023/09/06 11:55:20;;;;;;;3.47;2.25;;;32.20;53.40;;;;;;5100635;27;20294;-75
2023/09/06 11:57:52;;;;;;;3.50;2.50;;;32.40;52.50;;;;;;5113194;27;20171;-76
2023/09/06 12:00:28;;;;;;;3.67;2.70;;;32.30;50.20;;;;;;5106963;27;20653;-75
2023/09/06 12:03:19;;;;;;;1.80;1.70;;;32.60;48.30;;;;;;5106486;27;20917;-75
2023/09/06 12:05:46;;;;;;;1.90;1.80;;;32.30;47.30;;;;;;5085877;28;20266;-75
2023/09/06 12:08:17;;;;;;;2.00;1.90;;;32.20;49.20;;;;;;5109661;27;20168;-76
2023/09/06 12:10:49;;;;;;;3.17;1.88;;;32.10;48.60;;;;;;5109823;28;20167;-74
2023/09/06 12:13:16;;;;;;;1.70;1.60;;;31.40;47.70;;;;;;5100180;27;20172;-75
2023/09/06 12:15:43;;;;;;;2.30;2.10;;;30.80;47.20;;;;;;5113006;27;20194;-76
2023/09/06 12:18:08;;;;;;;2.63;1.80;;;30.80;48.80;;;;;;5104326;28;20174;-75
2023/09/06 12:20:34;;;;;;;1.73;1.63;;;30.60;49.00;;;;;;5106720;27;20231;-77
2023/09/06 12:23:00;;;;;;;3.13;2.35;;;30.40;49.80;;;;;;5111848;28;20671;-75
2023/09/06 12:25:25;;;;;;;4.45;2.20;;;30.40;51.10;;;;;;5100095;27;20202;-75
2023/09/06 12:27:51;;;;;;;1.75;1.58;;;30.70;49.50;;;;;;5112469;28;20599;-77
2023/09/06 12:30:21;;;;;;;4.68;2.40;;;30.90;49.90;;;;;;5104853;28;20237;-76
2023/09/06 12:32:46;;;;;;;2.50;1.88;;;31.10;50.20;;;;;;5104505;27;20218;-76
2023/09/06 12:35:12;;;;;;;3.42;2.33;;;31.30;49.60;;;;;;5113044;28;20666;-76
2023/09/06 12:37:39;;;;;;;1.58;1.48;;;31.10;49.00;;;;;;5098869;28;20286;-77
2023/09/06 12:40:10;;;;;;;6.15;2.28;;;30.90;48.10;;;;;;5110654;27;20204;-78
2023/09/06 12:42:37;;;;;;;2.70;1.60;;;30.80;47.40;;;;;;5108403;28;20228;-78
2023/09/06 12:45:04;;;;;;;4.25;1.75;;;30.60;48.50;;;;;;5102737;27;20168;-78
2023/09/06 12:47:30;;;;;;;2.53;2.22;;;30.90;49.30;;;;;;5113396;28;20175;-79
2023/09/06 12:49:55;;;;;;;1.70;1.52;;;31.10;49.30;;;;;;5103657;28;20224;-79